Time;durP1;ratioP1;P1;durP2;ratioP2;P2;SDS_P1;SDS_P2;PMS_P1;PMS_P2;Temp;Humidity;BMP_temperature;BMP_pressure;BME280_temperature;BME280_humidity;BME280_pressure;Samples;Min_cycle;Max_cycle;Signal;HPM_P1;HPM_P2
2021/09/24 00:00:00;;;;;;;14.48;11.50;;;;;;;11.55;100.00;96056.28;1031193;28;20034;-65
2021/09/24 00:00:30;;;;;;;13.75;11.43;;;;;;;11.52;100.00;96042.88;1023415;28;20043;-65
2021/09/24 00:01:02;;;;;;;14.15;11.35;;;;;;;11.60;100.00;96057.34;1027733;28;20075;-65
2021/09/24 00:01:32;;;;;;;14.73;11.68;;;;;;;11.52;100.00;96038.41;1026448;28;20115;-66
2021/09/24 00:02:03;;;;;;;15.05;11.80;;;;;;;11.64;100.00;96053.94;1031359;28;20278;-65
2021/09/24 00:02:33;;;;;;;17.23;11.65;;;;;;;11.58;100.00;96041.84;1035710;28;20032;-65
2021/09/24 00:03:04;;;;;;;16.00;12.02;;;;;;;11.62;100.00;96052.63;1030952;28;20030;-64
2021/09/24 00:03:35;;;;;;;15.43;11.57;;;;;;;11.63;100.00;96048.94;1031276;28;20033;-65
2021/09/24 00:04:06;;;;;;;17.27;12.23;;;;;;;11.63;100.00;96052.34;1031199;28;20397;-64
2021/09/24 00:04:36;;;;;;;13.50;12.02;;;;;;;11.60;100.00;96046.81;1030325;28;20265;-63
2021/09/24 00:05:08;;;;;;;14.45;11.68;;;;;;;11.57;100.00;96048.16;1035306;28;20045;-65
2021/09/24 00:05:38;;;;;;;17.95;12.15;;;;;;;11.52;100.00;96048.13;1031390;28;20026;-65
2021/09/24 00:06:09;;;;;;;15.65;12.85;;;;;;;11.54;100.00;96046.81;1036194;28;20727;-67
2021/09/24 00:06:40;;;;;;;17.55;12.55;;;;;;;11.53;100.00;96045.22;1035278;28;20400;-65
2021/09/24 00:07:10;;;;;;;17.13;11.98;;;;;;;11.44;100.00;96031.03;1031215;28;20125;-65
2021/09/24 00:07:41;;;;;;;16.83;13.00;;;;;;;11.44;100.00;96036.31;1027178;28;20278;-65
2021/09/24 00:08:11;;;;;;;17.17;13.32;;;;;;;11.47;100.00;96040.25;1020955;28;20127;-64
2021/09/24 00:08:42;;;;;;;14.02;11.80;;;;;;;11.46;100.00;96044.69;1022980;29;20585;-65
2021/09/24 00:09:12;;;;;;;15.50;12.98;;;;;;;11.44;100.00;96041.56;1022818;28;20074;-62
2021/09/24 00:09:43;;;;;;;16.92;12.93;;;;;;;11.47;100.00;96040.25;1020296;28;20032;-67
2021/09/24 00:10:14;;;;;;;15.90;12.80;;;;;;;11.35;100.00;96027.34;1023008;28;20106;-65
2021/09/24 00:10:45;;;;;;;15.70;13.43;;;;;;;11.45;100.00;96039.72;1019196;29;20036;-66
2021/09/24 00:11:15;;;;;;;16.38;12.52;;;;;;;11.52;100.00;96043.66;1018941;28;20024;-66
2021/09/24 00:11:45;;;;;;;17.90;13.63;;;;;;;11.50;100.00;96037.88;1023051;28;20035;-64
2021/09/24 00:12:16;;;;;;;15.52;12.82;;;;;;;11.52;100.00;96046.28;1031232;28;20193;-63
2021/09/24 00:12:46;;;;;;;15.70;12.55;;;;;;;11.49;100.00;96038.13;1031191;28;20042;-65
2021/09/24 00:13:17;;;;;;;16.27;13.60;;;;;;;11.48;100.00;96045.22;1030105;28;20025;-63
2021/09/24 00:13:47;;;;;;;18.63;13.40;;;;;;;11.49;100.00;96038.91;1030843;28;20026;-65
2021/09/24 00:14:18;;;;;;;20.02;14.13;;;;;;;11.43;100.00;96033.91;1031086;28;20019;-64
2021/09/24 00:14:48;;;;;;;15.38;12.77;;;;;;;11.45;100.00;96042.34;1033361;28;20033;-64
2021/09/24 00:15:19;;;;;;;16.90;13.23;;;;;;;11.44;100.00;96038.13;1035073;28;20040;-65
2021/09/24 00:15:50;;;;;;;17.38;13.27;;;;;;;11.45;100.00;96037.88;1027050;28;20078;-65
2021/09/24 00:16:23;;;;;;;18.98;14.05;;;;;;;11.47;100.00;96040.25;1028959;28;20030;-64
2021/09/24 00:16:53;;;;;;;20.52;14.05;;;;;;;11.44;100.00;96044.19;1027403;28;20776;-65
2021/09/24 00:17:24;;;;;;;17.13;13.85;;;;;;;11.46;100.00;96041.28;1031229;28;20042;-64
2021/09/24 00:17:54;;;;;;;19.63;13.80;;;;;;;11.44;100.00;96041.56;1023084;28;20083;-62
2021/09/24 00:18:25;;;;;;;17.00;13.98;;;;;;;11.43;100.00;96036.53;1017099;28;20040;-65
2021/09/24 00:18:55;;;;;;;17.45;13.82;;;;;;;11.39;100.00;96033.66;1019096;29;20200;-64
2021/09/24 00:19:25;;;;;;;16.38;13.13;;;;;;;11.43;100.00;96045.22;1022964;29;20031;-65
2021/09/24 00:19:56;;;;;;;17.17;13.75;;;;;;;11.42;100.00;96033.13;1026382;28;20038;-63
2021/09/24 00:20:26;;;;;;;17.42;13.23;;;;;;;11.46;100.00;96028.94;1024934;28;20543;-66
2021/09/24 00:20:57;;;;;;;15.57;13.27;;;;;;;11.48;100.00;96026.84;1031078;28;20022;-64
2021/09/24 00:21:28;;;;;;;16.92;13.18;;;;;;;11.50;100.00;96030.00;1025880;28;20031;-64
2021/09/24 00:21:58;;;;;;;18.80;13.80;;;;;;;11.47;100.00;96033.16;1034597;28;20045;-64
2021/09/24 00:22:29;;;;;;;19.73;14.90;;;;;;;11.45;100.00;96027.34;1030926;28;20790;-65
2021/09/24 00:22:59;;;;;;;19.15;14.07;;;;;;;11.49;100.00;96023.16;1031152;28;20030;-66
2021/09/24 00:23:30;;;;;;;17.17;14.18;;;;;;;11.48;100.00;96026.84;1030969;28;20077;-62
2021/09/24 00:24:00;;;;;;;18.23;13.88;;;;;;;11.46;100.00;96018.41;1030895;28;20027;-65
2021/09/24 00:24:31;;;;;;;19.17;14.02;;;;;;;11.46;100.00;96022.88;1030968;28;20062;-64
2021/09/24 00:25:01;;;;;;;16.60;13.15;;;;;;;11.44;100.00;96022.38;1027009;28;20497;-64
2021/09/24 00:25:32;;;;;;;19.08;13.43;;;;;;;11.46;100.00;96028.16;1023346;29;20054;-65
2021/09/24 00:26:02;;;;;;;17.60;13.95;;;;;;;11.46;100.00;96022.88;1018743;29;20070;-65
2021/09/24 00:26:33;;;;;;;18.05;14.68;;;;;;;11.49;100.00;96032.88;1017516;29;20046;-65
2021/09/24 00:27:05;;;;;;;17.30;13.48;;;;;;;11.51;100.00;96028.94;1019172;28;20386;-65
2021/09/24 00:27:35;;;;;;;16.90;13.63;;;;;;;11.52;100.00;96029.72;1027452;28;20050;-66
2021/09/24 00:28:08;;;;;;;21.15;14.48;;;;;;;11.50;100.00;96024.75;1031138;28;20612;-65
2021/09/24 00:28:39;;;;;;;16.42;13.23;;;;;;;11.56;100.00;96028.16;1026787;28;20674;-64
2021/09/24 00:29:09;;;;;;;19.65;13.82;;;;;;;11.53;100.00;96021.56;1022829;29;20266;-65
2021/09/24 00:29:39;;;;;;;17.88;13.50;;;;;;;11.59;100.00;96032.09;1026405;28;20030;-66
2021/09/24 00:30:10;;;;;;;15.73;13.63;;;;;;;11.60;100.00;96031.06;1022949;29;20044;-65
2021/09/24 00:30:41;;;;;;;21.13;15.05;;;;;;;11.61;100.00;96040.53;1025941;28;20031;-63
2021/09/24 00:31:11;;;;;;;18.05;13.50;;;;;;;11.59;100.00;96032.91;1015827;29;20032;-65
2021/09/24 00:31:42;;;;;;;19.05;14.60;;;;;;;11.57;100.00;96033.16;1018659;29;20028;-63
2021/09/24 00:32:12;;;;;;;15.35;13.75;;;;;;;11.61;100.00;96035.28;1026383;28;20113;-64
2021/09/24 00:32:43;;;;;;;17.40;13.98;;;;;;;11.62;100.00;96034.22;1026093;28;20645;-64
2021/09/24 00:33:13;;;;;;;15.50;12.85;;;;;;;11.59;100.00;96032.91;1026360;28;20038;-64
2021/09/24 00:33:44;;;;;;;17.38;13.38;;;;;;;11.59;100.00;96038.16;1027075;28;20082;-66
2021/09/24 00:34:14;;;;;;;16.02;13.05;;;;;;;11.63;100.00;96039.19;1034675;28;20033;-63
2021/09/24 00:34:44;;;;;;;18.25;14.57;;;;;;;11.60;100.00;96037.09;1034444;28;20045;-65
2021/09/24 00:35:15;;;;;;;17.92;13.65;;;;;;;11.57;100.00;96038.44;1034550;28;20025;-63
2021/09/24 00:35:45;;;;;;;17.35;13.75;;;;;;;11.48;100.00;96028.69;1030559;28;20121;-61
2021/09/24 00:36:16;;;;;;;19.40;14.68;;;;;;;11.50;100.00;96045.78;1025875;28;20062;-64
2021/09/24 00:36:46;;;;;;;17.55;14.07;;;;;;;11.49;100.00;96038.13;1023277;28;20035;-65
2021/09/24 00:37:17;;;;;;;17.02;13.48;;;;;;;11.39;100.00;96027.59;1030986;28;20034;-62
2021/09/24 00:37:47;;;;;;;19.42;13.93;;;;;;;11.47;100.00;96040.25;1027436;28;20031;-63
2021/09/24 00:38:17;;;;;;;15.85;13.63;;;;;;;11.44;100.00;96046.03;1030417;28;20081;-63
2021/09/24 00:38:48;;;;;;;18.30;14.30;;;;;;;11.43;100.00;96039.97;1029502;28;20039;-65
2021/09/24 00:39:18;;;;;;;19.58;14.45;;;;;;;11.45;100.00;96037.88;1023271;28;20015;-64
2021/09/24 00:39:49;;;;;;;18.02;13.68;;;;;;;11.45;100.00;96035.25;1029985;28;20042;-63
2021/09/24 00:40:19;;;;;;;19.38;14.57;;;;;;;11.37;100.00;96027.88;1025999;28;20121;-64
2021/09/24 00:40:50;;;;;;;19.55;14.77;;;;;;;11.46;100.00;96042.06;1026623;28;20031;-65
2021/09/24 00:41:20;;;;;;;17.73;13.65;;;;;;;11.45;100.00;96043.13;1034002;28;20050;-65
2021/09/24 00:41:51;;;;;;;18.60;14.60;;;;;;;11.44;100.00;96038.94;1027202;28;20026;-65
2021/09/24 00:42:21;;;;;;;17.45;13.57;;;;;;;11.45;100.00;96040.50;1026938;28;20026;-64
2021/09/24 00:42:52;;;;;;;16.98;13.48;;;;;;;11.43;100.00;96047.84;1031163;28;20042;-64
2021/09/24 00:43:22;;;;;;;19.85;14.45;;;;;;;11.39;100.00;96038.91;1024482;28;20042;-65
2021/09/24 00:43:52;;;;;;;18.95;13.50;;;;;;;11.48;100.00;96047.06;1026870;28;20042;-64
2021/09/24 00:44:43;;;;;;;18.90;14.52;;;;;;;11.44;100.00;96048.66;1025954;28;20031;-64
2021/09/24 00:45:13;;;;;;;21.20;14.27;;;;;;;11.40;100.00;96045.75;1022665;29;20027;-65
2021/09/24 00:45:46;;;;;;;20.40;13.68;;;;;;;11.35;100.00;96043.09;1026852;28;20054;-64
2021/09/24 00:46:17;;;;;;;18.10;14.70;;;;;;;11.36;100.00;96049.16;1030140;28;20659;-64
2021/09/24 00:46:47;;;;;;;20.75;13.95;;;;;;;11.33;100.00;96045.19;1027811;28;20037;-63
2021/09/24 00:47:18;;;;;;;20.35;14.65;;;;;;;11.33;100.00;96039.94;1035095;28;20030;-64
2021/09/24 00:47:51;;;;;;;17.88;14.15;;;;;;;11.28;100.00;96038.09;1031427;28;20030;-65
2021/09/24 00:48:21;;;;;;;17.50;13.93;;;;;;;11.31;100.00;96036.78;1028851;28;20274;-64
2021/09/24 00:48:52;;;;;;;16.38;13.63;;;;;;;11.32;100.00;96044.41;1031853;28;20783;-64
2021/09/24 00:49:22;;;;;;;19.25;14.82;;;;;;;11.29;100.00;96038.88;1031120;28;20518;-65
2021/09/24 00:49:53;;;;;;;17.33;13.73;;;;;;;11.32;100.00;96039.16;1035004;28;20041;-65
2021/09/24 00:50:23;;;;;;;18.67;13.68;;;;;;;11.39;100.00;96035.50;1035286;28;20034;-65
2021/09/24 00:50:53;;;;;;;18.48;14.50;;;;;;;11.38;100.00;96039.19;1035061;28;20038;-65
2021/09/24 00:51:24;;;;;;;17.17;13.82;;;;;;;11.30;100.00;96032.56;1038650;28;20394;-65
2021/09/24 00:51:54;;;;;;;22.27;15.45;;;;;;;11.31;100.00;96027.06;1031232;28;20037;-65
2021/09/24 00:52:25;;;;;;;18.83;13.95;;;;;;;11.38;100.00;96036.56;1023147;29;20035;-65
2021/09/24 00:52:55;;;;;;;19.83;14.38;;;;;;;11.29;100.00;96028.38;1019516;29;20027;-64
2021/09/24 00:53:26;;;;;;;17.52;14.40;;;;;;;11.30;100.00;96032.56;1018933;29;20038;-65
2021/09/24 00:53:57;;;;;;;18.80;14.73;;;;;;;11.29;100.00;96038.88;1019206;29;20034;-64
2021/09/24 00:54:27;;;;;;;16.38;13.95;;;;;;;11.26;100.00;96034.16;1017266;29;20028;-65
2021/09/24 00:54:57;;;;;;;17.08;13.77;;;;;;;11.28;100.00;96039.94;1019010;29;20027;-65
2021/09/24 00:55:28;;;;;;;20.58;14.70;;;;;;;11.26;100.00;96044.66;1020866;29;20023;-64
2021/09/24 00:55:59;;;;;;;17.23;13.98;;;;;;;11.26;100.00;96045.44;1020936;28;20465;-65
2021/09/24 00:56:29;;;;;;;18.23;13.77;;;;;;;11.21;100.00;96034.16;1024636;28;20146;-63
2021/09/24 00:57:03;;;;;;;17.08;13.98;;;;;;;11.12;100.00;96028.59;1029870;28;20118;-63
2021/09/24 00:57:34;;;;;;;18.90;13.52;;;;;;;11.21;100.00;96045.44;1022739;28;20450;-63
2021/09/24 00:58:04;;;;;;;17.55;14.27;;;;;;;11.17;100.00;96044.38;1021084;28;20259;-64
2021/09/24 00:58:35;;;;;;;18.60;13.82;;;;;;;11.21;100.00;96037.56;1025604;28;20029;-64
2021/09/24 00:59:05;;;;;;;18.92;14.63;;;;;;;11.23;100.00;96037.28;1023774;28;20023;-65
2021/09/24 00:59:36;;;;;;;19.75;15.25;;;;;;;11.22;100.00;96043.59;1022490;28;20100;-65
2021/09/24 01:00:07;;;;;;;17.42;14.45;;;;;;;11.27;100.00;96041.00;1026788;28;20045;-62
2021/09/24 01:00:37;;;;;;;17.70;13.85;;;;;;;11.23;100.00;96039.91;1030310;28;20194;-63
2021/09/24 01:01:07;;;;;;;17.83;13.82;;;;;;;11.27;100.00;96044.41;1028412;28;20026;-64
2021/09/24 01:01:38;;;;;;;18.23;14.13;;;;;;;11.23;100.00;96040.72;1024400;28;20074;-64
2021/09/24 01:02:08;;;;;;;20.70;14.30;;;;;;;11.21;100.00;96042.03;1026586;28;20031;-65
2021/09/24 01:02:39;;;;;;;17.52;13.90;;;;;;;11.25;100.00;96046.50;1025256;28;20023;-65
2021/09/24 01:03:10;;;;;;;19.88;14.02;;;;;;;11.23;100.00;96050.41;1028456;28;20053;-63
2021/09/24 01:03:40;;;;;;;17.70;13.95;;;;;;;11.16;100.00;96036.75;1026420;28;20042;-68
2021/09/24 01:04:11;;;;;;;20.65;14.57;;;;;;;11.22;100.00;96049.63;1026980;28;20026;-64
2021/09/24 01:04:41;;;;;;;18.75;13.70;;;;;;;11.25;100.00;96048.34;1033060;28;20050;-64
2021/09/24 01:05:12;;;;;;;16.67;13.45;;;;;;;11.26;100.00;96044.66;1034648;28;20546;-63
2021/09/24 01:05:42;;;;;;;16.30;13.38;;;;;;;11.24;100.00;96046.75;1026439;28;20015;-64
2021/09/24 01:06:13;;;;;;;19.33;13.95;;;;;;;11.23;100.00;96039.91;1028330;28;20015;-63
2021/09/24 01:06:44;;;;;;;17.92;14.20;;;;;;;11.21;100.00;96047.28;1026819;28;20015;-64
2021/09/24 01:07:14;;;;;;;19.67;14.38;;;;;;;11.19;100.00;96049.38;1026925;28;20011;-62
2021/09/24 01:07:45;;;;;;;16.90;14.23;;;;;;;11.10;100.00;96041.22;1026860;28;20031;-65
2021/09/24 01:08:15;;;;;;;17.80;13.77;;;;;;;11.18;100.00;96043.31;1023262;28;20833;-64
2021/09/24 01:08:46;;;;;;;16.40;13.35;;;;;;;11.11;100.00;96034.91;1024528;28;20030;-64
2021/09/24 01:09:17;;;;;;;21.00;14.65;;;;;;;11.20;100.00;96045.69;1021079;29;20075;-64
2021/09/24 01:09:47;;;;;;;18.50;13.95;;;;;;;11.19;100.00;96049.38;1018576;29;20024;-63
2021/09/24 01:10:18;;;;;;;19.27;14.02;;;;;;;11.17;100.00;96049.63;1018711;29;20086;-65
2021/09/24 01:10:48;;;;;;;17.58;14.30;;;;;;;11.14;100.00;96047.53;1019189;28;20535;-64
2021/09/24 01:11:21;;;;;;;16.92;13.80;;;;;;;11.06;100.00;96040.91;1034167;28;20033;-65
2021/09/24 01:11:52;;;;;;;20.33;14.90;;;;;;;11.13;100.00;96045.13;1030984;28;20117;-64
2021/09/24 01:12:22;;;;;;;18.45;14.60;;;;;;;11.13;100.00;96045.91;1030942;28;20969;-64
2021/09/24 01:12:52;;;;;;;17.25;13.90;;;;;;;11.00;100.00;96036.72;1029405;28;20022;-63
2021/09/24 01:13:23;;;;;;;20.85;14.65;;;;;;;11.08;100.00;96041.44;1031047;28;20019;-64
2021/09/24 01:13:53;;;;;;;19.63;13.95;;;;;;;11.09;100.00;96048.28;1030630;28;20026;-64
2021/09/24 01:14:29;;;;;;;18.33;14.07;;;;;;;11.03;100.00;96040.63;1030650;28;20019;-64
2021/09/24 01:15:00;;;;;;;16.98;14.05;;;;;;;10.95;100.00;96035.91;1030761;28;20089;-65
2021/09/24 01:15:33;;;;;;;20.50;15.02;;;;;;;10.97;100.00;96044.31;1019027;29;20377;-64
2021/09/24 01:16:04;;;;;;;18.52;14.95;;;;;;;10.95;100.00;96044.56;1022877;29;20818;-66
2021/09/24 01:16:34;;;;;;;17.70;14.23;;;;;;;10.93;100.00;96043.22;1023032;29;20326;-65
2021/09/24 01:17:05;;;;;;;17.38;14.05;;;;;;;10.95;100.00;96039.31;1023947;28;20031;-64
2021/09/24 01:17:35;;;;;;;49.38;16.92;;;;;;;10.89;100.00;96035.06;1035053;28;20029;-65
2021/09/24 01:18:06;;;;;;;22.75;15.38;;;;;;;10.88;100.00;96033.50;1037959;28;20119;-65
2021/09/24 01:18:36;;;;;;;22.83;14.82;;;;;;;10.91;100.00;96043.50;1032433;28;20026;-65
2021/09/24 01:19:07;;;;;;;18.88;14.82;;;;;;;10.88;100.00;96037.97;1030097;28;20853;-66
2021/09/24 01:19:37;;;;;;;20.05;14.20;;;;;;;10.91;100.00;96042.72;1030542;28;20496;-65
2021/09/24 01:20:09;;;;;;;17.60;14.73;;;;;;;10.84;100.00;96027.19;1027363;28;20027;-65
2021/09/24 01:20:39;;;;;;;21.17;14.57;;;;;;;10.82;100.00;96024.81;1030802;28;20037;-65
2021/09/24 01:21:10;;;;;;;21.33;15.73;;;;;;;10.79;100.00;96025.31;1027022;28;20270;-62
2021/09/24 01:21:42;;;;;;;17.98;14.18;;;;;;;10.82;100.00;96030.06;1019250;29;20039;-66
2021/09/24 01:22:13;;;;;;;15.82;13.52;;;;;;;10.84;100.00;96035.06;1022801;28;20027;-64
2021/09/24 01:22:43;;;;;;;20.23;14.45;;;;;;;10.77;100.00;96026.66;1026871;28;20618;-65
2021/09/24 01:23:14;;;;;;;30.10;15.95;;;;;;;10.79;100.00;96035.03;1023090;28;20445;-66
2021/09/24 01:23:44;;;;;;;19.50;15.02;;;;;;;10.80;100.00;96036.63;1026922;28;20034;-65
2021/09/24 01:24:15;;;;;;;16.52;13.48;;;;;;;10.88;100.00;96032.72;1022844;29;20090;-65
2021/09/24 01:24:45;;;;;;;17.73;13.90;;;;;;;10.91;100.00;96026.97;1020171;28;20036;-66
2021/09/24 01:25:16;;;;;;;17.15;14.60;;;;;;;10.89;100.00;96029.03;1027018;28;20027;-66
2021/09/24 01:25:46;;;;;;;17.85;15.23;;;;;;;10.81;100.00;96028.50;1027005;28;20042;-65
2021/09/24 01:26:17;;;;;;;19.00;14.63;;;;;;;10.87;100.00;96037.19;1022636;28;20079;-65
2021/09/24 01:26:49;;;;;;;18.45;14.55;;;;;;;10.90;100.00;96030.59;1017392;29;20039;-65
2021/09/24 01:27:20;;;;;;;18.30;14.18;;;;;;;10.90;100.00;96035.84;1023196;28;20031;-64
2021/09/24 01:27:51;;;;;;;18.80;14.40;;;;;;;10.95;100.00;96034.06;1023342;28;20301;-65
2021/09/24 01:28:21;;;;;;;18.67;14.50;;;;;;;10.96;100.00;96030.38;1020020;28;20675;-64
2021/09/24 01:28:52;;;;;;;21.35;14.65;;;;;;;10.89;100.00;96026.41;1022756;28;20511;-63
2021/09/24 01:29:24;;;;;;;16.77;14.02;;;;;;;10.92;100.00;96037.19;1018931;29;20494;-65
2021/09/24 01:29:57;;;;;;;21.33;14.60;;;;;;;10.87;100.00;96036.41;1018838;29;20039;-64
2021/09/24 01:30:28;;;;;;;18.23;14.30;;;;;;;10.86;100.00;96035.59;1019076;29;20286;-63
2021/09/24 01:30:58;;;;;;;19.05;13.95;;;;;;;10.89;100.00;96032.44;1019302;29;20263;-66
2021/09/24 01:31:29;;;;;;;17.25;13.77;;;;;;;10.92;100.00;96031.16;1023332;28;20031;-65
2021/09/24 01:31:59;;;;;;;18.90;14.98;;;;;;;10.89;100.00;96029.03;1022982;28;20035;-65
2021/09/24 01:32:30;;;;;;;18.70;13.95;;;;;;;10.86;100.00;96032.97;1024895;28;20035;-65
2021/09/24 01:33:00;;;;;;;19.25;14.30;;;;;;;10.82;100.00;96026.66;1026823;28;20023;-65
2021/09/24 01:33:31;;;;;;;17.67;14.77;;;;;;;10.86;100.00;96032.97;1022931;28;20051;-64
2021/09/24 01:34:02;;;;;;;19.70;14.05;;;;;;;10.84;100.00;96027.97;1030943;28;20762;-65
2021/09/24 01:34:33;;;;;;;19.52;14.73;;;;;;;10.79;100.00;96021.91;1030789;28;20053;-64
2021/09/24 01:35:04;;;;;;;18.27;14.07;;;;;;;10.81;100.00;96022.44;1023192;28;20467;-65
2021/09/24 01:35:35;;;;;;;17.50;13.80;;;;;;;10.84;100.00;96019.31;1023250;29;20062;-65
2021/09/24 01:36:06;;;;;;;18.75;13.85;;;;;;;10.89;100.00;96026.41;1022664;29;20273;-66
2021/09/24 01:36:36;;;;;;;17.15;12.95;;;;;;;10.90;100.00;96025.34;1023500;28;20105;-64
2021/09/24 01:37:06;;;;;;;18.20;13.32;;;;;;;10.89;100.00;96026.41;1019510;29;20023;-66
2021/09/24 01:37:37;;;;;;;18.33;14.02;;;;;;;10.90;100.00;96023.53;1020701;28;20578;-64
2021/09/24 01:38:08;;;;;;;16.30;13.30;;;;;;;10.95;100.00;96030.66;1027253;28;20031;-65
2021/09/24 01:38:39;;;;;;;17.33;13.40;;;;;;;10.87;100.00;96020.66;1025990;28;20039;-64
2021/09/24 01:39:10;;;;;;;19.23;13.45;;;;;;;10.85;100.00;96015.63;1026724;28;20324;-64
2021/09/24 01:39:41;;;;;;;17.63;13.90;;;;;;;10.87;100.00;96021.44;1031093;28;20030;-65
2021/09/24 01:40:21;;;;;;;17.55;13.25;;;;;;;10.85;100.00;96020.88;1030661;28;20312;-65
2021/09/24 01:40:51;;;;;;;17.63;14.02;;;;;;;10.87;100.00;96023.28;1027312;28;20058;-65
2021/09/24 01:41:22;;;;;;;18.20;13.25;;;;;;;10.87;100.00;96025.91;1029924;28;20037;-65
2021/09/24 01:41:52;;;;;;;20.70;14.07;;;;;;;10.86;100.00;96019.84;1026805;28;20496;-65
2021/09/24 01:42:23;;;;;;;17.15;13.90;;;;;;;10.87;100.00;96021.44;1019271;29;20027;-64
2021/09/24 01:42:54;;;;;;;20.33;13.93;;;;;;;10.86;100.00;96022.47;1026817;28;20026;-65
2021/09/24 01:43:25;;;;;;;17.00;13.43;;;;;;;10.87;100.00;96016.19;1019161;29;20023;-65
2021/09/24 01:43:56;;;;;;;16.98;13.63;;;;;;;10.89;100.00;96019.31;1018194;29;20504;-68
2021/09/24 01:44:26;;;;;;;17.98;13.55;;;;;;;10.87;100.00;96016.19;1022690;29;20129;-67
2021/09/24 01:44:57;;;;;;;18.75;13.70;;;;;;;10.83;100.00;96013.28;1024487;28;20038;-65
2021/09/24 01:45:28;;;;;;;15.60;13.27;;;;;;;10.82;100.00;96016.16;1026832;28;20027;-65
2021/09/24 01:45:59;;;;;;;16.73;14.07;;;;;;;10.84;100.00;96017.47;1021614;28;20027;-64
2021/09/24 01:46:29;;;;;;;20.02;15.07;;;;;;;10.84;100.00;96019.31;1027729;28;20048;-64
2021/09/24 01:47:00;;;;;;;15.48;13.38;;;;;;;10.79;100.00;96006.16;1022514;29;20049;-63
2021/09/24 01:47:33;;;;;;;17.23;13.45;;;;;;;10.82;100.00;96018.78;1030728;28;20085;-65
2021/09/24 01:48:04;;;;;;;15.93;13.68;;;;;;;10.77;100.00;96011.69;1027009;28;20270;-63
2021/09/24 01:48:35;;;;;;;17.70;14.65;;;;;;;10.77;100.00;96016.16;1022793;28;20167;-63
2021/09/24 01:49:05;;;;;;;16.00;13.52;;;;;;;10.83;100.00;96015.91;1029032;28;20038;-63
2021/09/24 01:49:39;;;;;;;18.48;13.65;;;;;;;10.63;100.00;95981.72;1024721;28;20037;-64
2021/09/24 01:50:10;;;;;;;16.55;13.68;;;;;;;10.83;100.00;96020.34;1024914;29;20501;-64
2021/09/24 01:50:40;;;;;;;18.75;13.95;;;;;;;10.82;100.00;96008.28;1017702;29;20268;-66
2021/09/24 01:51:11;;;;;;;20.67;13.40;;;;;;;10.79;100.00;96004.31;1015525;29;20039;-63
2021/09/24 01:51:43;;;;;;;17.52;12.63;;;;;;;10.91;100.00;96022.50;1019375;29;20054;-64
2021/09/24 01:52:13;;;;;;;16.55;13.02;;;;;;;10.87;100.00;96010.94;1021396;28;20031;-62
2021/09/24 01:52:44;;;;;;;16.65;13.18;;;;;;;10.90;100.00;96017.47;1027894;28;20278;-64
2021/09/24 01:53:14;;;;;;;17.67;13.13;;;;;;;10.92;100.00;96018.81;1019550;29;20035;-65
2021/09/24 01:53:45;;;;;;;17.10;13.00;;;;;;;10.87;100.00;96010.94;1026297;28;20085;-65
2021/09/24 01:54:16;;;;;;;16.70;13.77;;;;;;;10.87;100.00;96010.94;1030655;28;20010;-64
2021/09/24 01:54:46;;;;;;;19.48;13.25;;;;;;;10.93;100.00;96015.16;1022551;29;20035;-65
2021/09/24 01:55:17;;;;;;;16.23;13.10;;;;;;;10.99;100.00;96014.09;1030676;28;20261;-65
2021/09/24 01:55:48;;;;;;;16.48;13.35;;;;;;;10.97;100.00;96010.97;1028042;28;20081;-65
2021/09/24 01:56:21;;;;;;;16.95;13.05;;;;;;;10.97;100.00;96013.59;1019787;28;20034;-64
2021/09/24 01:56:52;;;;;;;14.75;12.55;;;;;;;10.97;100.00;96008.34;1022802;29;20023;-64
2021/09/24 01:57:23;;;;;;;17.30;12.85;;;;;;;10.94;100.00;96008.84;1026379;28;20270;-65
2021/09/24 01:57:53;;;;;;;15.23;12.88;;;;;;;10.98;100.00;96012.53;1026499;28;20079;-62
2021/09/24 01:58:24;;;;;;;17.90;13.00;;;;;;;10.95;100.00;96013.06;1023044;29;20314;-63
2021/09/24 01:58:54;;;;;;;19.33;13.50;;;;;;;11.01;100.00;96011.25;1028353;28;20050;-63
2021/09/24 01:59:25;;;;;;;15.77;12.10;;;;;;;11.00;100.00;96012.25;1031601;28;20026;-64
2021/09/24 01:59:55;;;;;;;14.60;12.38;;;;;;;10.96;100.00;96008.59;1024487;28;20297;-62
2021/09/24 02:00:26;;;;;;;15.15;12.05;;;;;;;10.97;100.00;96010.97;1031716;28;20864;-62
2021/09/24 02:00:56;;;;;;;16.33;12.50;;;;;;;10.92;100.00;96005.69;1023580;28;20079;-65
2021/09/24 02:01:27;;;;;;;15.15;12.68;;;;;;;10.88;100.00;96009.88;1024314;28;20031;-65
2021/09/24 02:01:58;;;;;;;16.65;12.60;;;;;;;10.90;100.00;96020.91;1022409;28;20026;-64
2021/09/24 02:02:29;;;;;;;16.02;12.73;;;;;;;10.89;100.00;96008.81;1026191;28;20043;-65
2021/09/24 02:02:59;;;;;;;18.23;12.10;;;;;;;10.96;100.00;96019.09;1026428;28;20035;-64
2021/09/24 02:03:30;;;;;;;17.17;12.52;;;;;;;10.99;100.00;96014.09;1030569;28;20802;-64
2021/09/24 02:04:03;;;;;;;15.95;12.25;;;;;;;11.03;100.00;96015.19;1026193;28;20033;-65
2021/09/24 02:04:34;;;;;;;16.23;12.90;;;;;;;10.99;100.00;96013.31;1022668;28;20405;-64
2021/09/24 02:05:05;;;;;;;18.25;12.45;;;;;;;11.05;100.00;96028.84;1030311;28;20340;-64
2021/09/24 02:05:36;;;;;;;15.40;11.77;;;;;;;10.95;100.00;96012.25;1022728;29;20027;-65
2021/09/24 02:06:06;;;;;;;14.23;12.00;;;;;;;11.06;100.00;96019.91;1018318;28;20781;-65
2021/09/24 02:06:37;;;;;;;18.73;12.07;;;;;;;11.00;100.00;96020.97;1020470;28;20772;-65
2021/09/24 02:07:10;;;;;;;16.85;12.52;;;;;;;11.10;100.00;96025.44;1030522;28;20050;-65
2021/09/24 02:07:41;;;;;;;13.73;11.55;;;;;;;11.05;100.00;96022.78;1024962;28;20536;-66
2021/09/24 02:08:11;;;;;;;15.85;12.43;;;;;;;11.02;100.00;96021.47;1023128;28;20339;-65
2021/09/24 02:08:42;;;;;;;16.20;12.43;;;;;;;11.04;100.00;96019.38;1029745;28;20037;-65
2021/09/24 02:09:13;;;;;;;13.48;11.60;;;;;;;11.05;100.00;96022.78;1024735;28;20027;-65
2021/09/24 02:09:43;;;;;;;16.15;12.48;;;;;;;10.98;100.00;96017.78;1027331;28;20023;-63
2021/09/24 02:10:14;;;;;;;16.65;12.73;;;;;;;10.97;100.00;96021.47;1027771;28;20027;-63
2021/09/24 02:10:44;;;;;;;16.95;13.02;;;;;;;11.00;100.00;96028.03;1019820;28;20035;-62
2021/09/24 02:11:15;;;;;;;19.52;12.65;;;;;;;10.98;100.00;96028.28;1018438;29;20114;-62
2021/09/24 02:11:45;;;;;;;15.48;12.15;;;;;;;11.01;100.00;96022.53;1026054;28;20074;-62
2021/09/24 02:12:16;;;;;;;16.52;12.85;;;;;;;10.96;100.00;96013.84;1022525;29;20035;-64
2021/09/24 02:12:46;;;;;;;15.18;12.43;;;;;;;10.98;100.00;96023.03;1026388;28;20189;-65
2021/09/24 02:13:17;;;;;;;15.02;12.02;;;;;;;10.91;100.00;96014.63;1026257;28;20031;-65
2021/09/24 02:13:47;;;;;;;14.13;12.27;;;;;;;10.98;100.00;96023.03;1022868;29;20031;-65
2021/09/24 02:14:18;;;;;;;16.13;12.35;;;;;;;10.99;100.00;96018.56;1019295;28;20032;-64
2021/09/24 02:14:48;;;;;;;15.45;13.68;;;;;;;10.92;100.00;96018.81;1030411;28;20019;-65
2021/09/24 02:15:19;;;;;;;18.15;12.85;;;;;;;10.89;100.00;96013.28;1034442;28;20025;-64
2021/09/24 02:15:49;;;;;;;18.25;13.10;;;;;;;10.89;100.00;96023.78;1018575;28;20091;-65
2021/09/24 02:16:20;;;;;;;17.02;13.40;;;;;;;10.89;100.00;96024.56;1026577;28;20026;-64
2021/09/24 02:16:51;;;;;;;14.15;12.65;;;;;;;10.88;100.00;96016.97;1020195;29;20031;-64
2021/09/24 02:17:21;;;;;;;16.17;13.30;;;;;;;10.87;100.00;96021.44;1026445;28;20041;-64
2021/09/24 02:17:52;;;;;;;17.42;12.05;;;;;;;10.86;100.00;96019.84;1022589;29;20042;-64
2021/09/24 02:18:22;;;;;;;16.17;12.90;;;;;;;10.81;100.00;96009.34;1026026;28;20582;-64
2021/09/24 02:18:53;;;;;;;16.83;12.57;;;;;;;10.87;100.00;96020.66;1022357;28;20026;-64
2021/09/24 02:19:24;;;;;;;15.75;13.25;;;;;;;10.84;100.00;96014.06;1019841;29;20024;-65
2021/09/24 02:19:57;;;;;;;14.70;12.68;;;;;;;10.81;100.00;96022.44;1018360;29;20039;-64